Decoded Metar for OMDW ( in ) (IATA:) | Meteo·Mobile Aviation Weather
aviador You're here:

OMDW Decoded Metar

in
Report Time2018-09-18 13:00:00
UTC Time2018-09-18 13:13:05
Flight Rules vfr VFR
Wind330° at 11 kt
W.Decomp.*RWY 30: 9.5 kt HW 5.5 kt RCW
W.Rank330° ranks 5
Current wind is above 330° avg. (10.4)
Visibility8000 m
Phenomena:N/A
Clouds:N/A
Expected CloudBase > 10,400 ft AGL from Temp-Dew spread
CeilingNone
Temp40°C
Dew Point14°C (21% RH)
Heat Index39.7°C
AAT37.1°C
QNH1005 hPa
Raw Report
METAR OMDW 181300Z 33011KT 8000 NSC 40/14 Q1005 NOSIG=

Extra information for OMDW:More info

Social comments